Sankuniki — JD2465 — position and weather

sailwx.info

Track history (hours):
 
Tides and Currents Weather Stations Pressure Air Temp Water Temp Dewpoint Dewpoint Depression Visibility Wind Speed Wind Dir Waves Ship Positions

Sankuniki

Last reported at 2016-Feb-05 10:31 UTC. Time now 2016-Feb-09 22:39 UTC.
Position N 35°27' E 140°41'.

Length 71 m; draft 5.2 m.

Type: Cargo ship. MMSI: 431000269.

Date/timePositionNaut miles runAvg speedWind from/ knotsBaromVisibWave heightAir tempDewpointWater temp
2016-Feb-05 10:31N 35°27' E 140°41'49 8.1
2016-Feb-05 04:32N 35°09' E 139°46'1111.7
2016-Feb-05 03:34N 35°20' E 139°42'6 6.3
2016-Feb-05 02:34N 35°27' E 139°43'9 8.6
2016-Feb-05 01:33N 35°30' E 139°53'5 4.6
2016-Feb-05 00:33N 35°27' E 139°58'0 0.0
2016-Feb-04 23:34N 35°27' E 139°58'0 0.0
2016-Feb-04 22:31N 35°27' E 139°58'2 1.6
2016-Feb-04 21:32N 35°29' E 139°57'0 0.0
2016-Feb-04 20:32N 35°29' E 139°57'0 0.0
2016-Feb-04 19:32N 35°29' E 139°57'0 0.0
2016-Feb-04 18:29N 35°29' E 139°57'0 0.0
2016-Feb-04 17:29N 35°29' E 139°57'0 0.1
2016-Feb-04 16:23N 35°29' E 139°57'0 0.0
2016-Feb-04 15:26N 35°29' E 139°57'0 0.0
2016-Feb-04 14:29N 35°29' E 139°57'0 0.0
2016-Feb-04 13:29N 35°29' E 139°57'0 0.0
2016-Feb-04 12:29N 35°29' E 139°57'0 0.0
2016-Feb-04 11:29N 35°29' E 139°57'2 1.9
2016-Feb-04 10:33N 35°29' E 139°54'1212.0
2016-Feb-04 09:34N 35°20' E 139°45'1211.8
2016-Feb-04 08:33N 35°08' E 139°46'65 5.8
2016-Feb-03 21:23N 35°56' E 140°41'0 0.1
2016-Feb-03 17:22N 35°56' E 140°42'1 1.6
2016-Feb-03 16:31N 35°57' E 140°42'0 0.0
2016-Feb-03 15:19N 35°57' E 140°42'30 2.3
2016-Feb-03 02:04N 35°27' E 140°41'3512.1
2016-Feb-02 23:12N 35°01' E 140°12'912.4
2016-Feb-02 22:31N 34°57' E 140°04'25210.5
2016-Feb-01 22:32N 34°06' E 135°04'9 9.1
2016-Feb-01 21:33N 34°15' E 135°07'0 0.0
2016-Feb-01 20:33N 34°15' E 135°07'0 0.0
2016-Feb-01 19:33N 34°15' E 135°07'0 0.0
2016-Feb-01 18:33N 34°15' E 135°07'0 0.0
2016-Feb-01 17:34N 34°15' E 135°07'0 0.0
2016-Feb-01 16:33N 34°15' E 135°07'0 0.0
2016-Feb-01 15:33N 34°15' E 135°07'0 0.0
2016-Feb-01 14:33N 34°15' E 135°07'0 0.0
2016-Feb-01 13:33N 34°15' E 135°07'0 0.0
2016-Feb-01 12:33N 34°15' E 135°07'0 0.0
2016-Feb-01 11:33N 34°15' E 135°07'0 0.0
2016-Feb-01 10:33N 34°15' E 135°07'0 0.0
2016-Feb-01 09:33N 34°15' E 135°07'0 0.0
2016-Feb-01 08:33N 34°15' E 135°07'1 0.8
2016-Feb-01 07:33N 34°15' E 135°06'1 1.3
2016-Feb-01 06:33N 34°14' E 135°05'234 5.2
2016-Jan-30 09:05N 35°05' E 139°43'712.3
2016-Jan-30 08:34N 35°11' E 139°46'1111.3
2016-Jan-30 07:33N 35°22' E 139°42'1111.2
2016-Jan-30 06:34N 35°29' E 139°53'6 6.0
2016-Jan-30 05:34N 35°28' E 140°00'0 0.0
2016-Jan-30 04:33N 35°28' E 140°00'0 0.0
2016-Jan-30 03:33N 35°28' E 140°00'0 0.0
2016-Jan-30 02:34N 35°28' E 140°00'2 1.9
2016-Jan-30 01:33N 35°30' E 139°59'0 0.0
2016-Jan-30 00:33N 35°30' E 139°59'0 0.1
2016-Jan-29 23:33N 35°30' E 139°59'2 1.9
2016-Jan-29 22:34N 35°28' E 140°00'0 0.0
2016-Jan-29 21:33N 35°28' E 140°00'0 0.0
2016-Jan-29 20:34N 35°28' E 140°00'0 0.0
2016-Jan-29 19:33N 35°28' E 140°00'0 0.0
2016-Jan-29 18:33N 35°28' E 140°00'0 0.0
2016-Jan-29 17:33N 35°28' E 140°00'0 0.0
2016-Jan-29 16:33N 35°28' E 140°00'0 0.0
2016-Jan-29 15:33N 35°28' E 140°00'0 0.0
2016-Jan-29 14:33N 35°28' E 140°00'7 6.7
2016-Jan-29 13:33N 35°28' E 139°52'7 6.6
2016-Jan-29 12:34N 35°22' E 139°53'0 0.0
2016-Jan-29 11:33N 35°22' E 139°53'0 0.0
2016-Jan-29 10:34N 35°22' E 139°53'0 0.0
2016-Jan-29 09:33N 35°22' E 139°53'0 0.0
2016-Jan-29 08:32N 35°22' E 139°53'0 0.0
2016-Jan-29 07:32N 35°22' E 139°53'0 0.0
2016-Jan-29 06:32N 35°22' E 139°53'0 0.0
2016-Jan-29 05:32N 35°22' E 139°53'0 0.0
2016-Jan-29 04:32N 35°22' E 139°53'0 0.0
2016-Jan-29 03:32N 35°22' E 139°53'0 0.0
2016-Jan-29 02:32N 35°22' E 139°53'0 0.0
2016-Jan-29 01:32N 35°22' E 139°53'0 0.0
2016-Jan-29 00:32N 35°22' E 139°53'0 0.0
2016-Jan-28 23:32N 35°22' E 139°53'0 0.0
2016-Jan-28 22:32N 35°22' E 139°53'0 0.0
2016-Jan-28 21:29N 35°22' E 139°53'2 2.4
2016-Jan-28 20:33N 35°24' E 139°51'0 0.1
2016-Jan-28 19:31N 35°24' E 139°51'0 0.0
2016-Jan-28 18:31N 35°24' E 139°51'0 0.0
2016-Jan-28 17:31N 35°24' E 139°51'0 0.0
2016-Jan-28 16:31N 35°24' E 139°51'0 0.0
2016-Jan-28 15:31N 35°24' E 139°51'0 0.0
2016-Jan-28 14:28N 35°24' E 139°51'0 0.0
2016-Jan-28 13:31N 35°24' E 139°51'0 0.0
2016-Jan-28 12:31N 35°24' E 139°51'0 0.0
2016-Jan-28 11:31N 35°24' E 139°51'0 0.0
2016-Jan-28 10:31N 35°24' E 139°51'0 0.1
2016-Jan-28 09:25N 35°24' E 139°51'0 0.0
2016-Jan-28 08:31N 35°24' E 139°51'0 0.0
2016-Jan-28 07:31N 35°24' E 139°51'0 0.0
2016-Jan-28 06:25N 35°24' E 139°51'0 0.0
2016-Jan-28 05:33N 35°24' E 139°51'8 7.5
2016-Jan-28 04:33N 35°18' E 139°45'1110.4
2016-Jan-28 03:32N 35°07' E 139°45'  
Track history (hours):
 
Tides and Currents Weather Stations Pressure Air Temp Water Temp Dewpoint Dewpoint Depression Visibility Wind Speed Wind Dir Waves Ship Positions

Sankuniki

Last reported at 2016-Feb-05 10:31 UTC. Time now 2016-Feb-09 22:39 UTC.
Position N 35°27' E 140°41'.

Length 71 m; draft 5.2 m.

Type: Cargo ship. MMSI: 431000269.

Date/timePositionNaut miles runAvg speedWind from/ knotsBaromVisibWave heightAir tempDewpointWater temp
2016-Feb-05 10:31N 35°27' E 140°41'49 8.1
2016-Feb-05 04:32N 35°09' E 139°46'1111.7
2016-Feb-05 03:34N 35°20' E 139°42'6 6.3
2016-Feb-05 02:34N 35°27' E 139°43'9 8.6
2016-Feb-05 01:33N 35°30' E 139°53'5 4.6
2016-Feb-05 00:33N 35°27' E 139°58'0 0.0
2016-Feb-04 23:34N 35°27' E 139°58'0 0.0
2016-Feb-04 22:31N 35°27' E 139°58'2 1.6
2016-Feb-04 21:32N 35°29' E 139°57'0 0.0
2016-Feb-04 20:32N 35°29' E 139°57'0 0.0
2016-Feb-04 19:32N 35°29' E 139°57'0 0.0
2016-Feb-04 18:29N 35°29' E 139°57'0 0.0
2016-Feb-04 17:29N 35°29' E 139°57'0 0.1
2016-Feb-04 16:23N 35°29' E 139°57'0 0.0
2016-Feb-04 15:26N 35°29' E 139°57'0 0.0
2016-Feb-04 14:29N 35°29' E 139°57'0 0.0
2016-Feb-04 13:29N 35°29' E 139°57'0 0.0
2016-Feb-04 12:29N 35°29' E 139°57'0 0.0
2016-Feb-04 11:29N 35°29' E 139°57'2 1.9
2016-Feb-04 10:33N 35°29' E 139°54'1212.0
2016-Feb-04 09:34N 35°20' E 139°45'1211.8
2016-Feb-04 08:33N 35°08' E 139°46'65 5.8
2016-Feb-03 21:23N 35°56' E 140°41'0 0.1
2016-Feb-03 17:22N 35°56' E 140°42'1 1.6
2016-Feb-03 16:31N 35°57' E 140°42'0 0.0
2016-Feb-03 15:19N 35°57' E 140°42'30 2.3
2016-Feb-03 02:04N 35°27' E 140°41'3512.1
2016-Feb-02 23:12N 35°01' E 140°12'912.4
2016-Feb-02 22:31N 34°57' E 140°04'25210.5
2016-Feb-01 22:32N 34°06' E 135°04'9 9.1
2016-Feb-01 21:33N 34°15' E 135°07'0 0.0
2016-Feb-01 20:33N 34°15' E 135°07'0 0.0
2016-Feb-01 19:33N 34°15' E 135°07'0 0.0
2016-Feb-01 18:33N 34°15' E 135°07'0 0.0
2016-Feb-01 17:34N 34°15' E 135°07'0 0.0
2016-Feb-01 16:33N 34°15' E 135°07'0 0.0
2016-Feb-01 15:33N 34°15' E 135°07'0 0.0
2016-Feb-01 14:33N 34°15' E 135°07'0 0.0
2016-Feb-01 13:33N 34°15' E 135°07'0 0.0
2016-Feb-01 12:33N 34°15' E 135°07'0 0.0
2016-Feb-01 11:33N 34°15' E 135°07'0 0.0
2016-Feb-01 10:33N 34°15' E 135°07'0 0.0
2016-Feb-01 09:33N 34°15' E 135°07'0 0.0
2016-Feb-01 08:33N 34°15' E 135°07'1 0.8
2016-Feb-01 07:33N 34°15' E 135°06'1 1.3
2016-Feb-01 06:33N 34°14' E 135°05'234 5.2
2016-Jan-30 09:05N 35°05' E 139°43'712.3
2016-Jan-30 08:34N 35°11' E 139°46'1111.3
2016-Jan-30 07:33N 35°22' E 139°42'1111.2
2016-Jan-30 06:34N 35°29' E 139°53'6 6.0
2016-Jan-30 05:34N 35°28' E 140°00'0 0.0
2016-Jan-30 04:33N 35°28' E 140°00'0 0.0
2016-Jan-30 03:33N 35°28' E 140°00'0 0.0
2016-Jan-30 02:34N 35°28' E 140°00'2 1.9
2016-Jan-30 01:33N 35°30' E 139°59'0 0.0
2016-Jan-30 00:33N 35°30' E 139°59'0 0.1
2016-Jan-29 23:33N 35°30' E 139°59'2 1.9
2016-Jan-29 22:34N 35°28' E 140°00'0 0.0
2016-Jan-29 21:33N 35°28' E 140°00'0 0.0
2016-Jan-29 20:34N 35°28' E 140°00'0 0.0
2016-Jan-29 19:33N 35°28' E 140°00'0 0.0
2016-Jan-29 18:33N 35°28' E 140°00'0 0.0
2016-Jan-29 17:33N 35°28' E 140°00'0 0.0
2016-Jan-29 16:33N 35°28' E 140°00'0 0.0
2016-Jan-29 15:33N 35°28' E 140°00'0 0.0
2016-Jan-29 14:33N 35°28' E 140°00'7 6.7
2016-Jan-29 13:33N 35°28' E 139°52'7 6.6
2016-Jan-29 12:34N 35°22' E 139°53'0 0.0
2016-Jan-29 11:33N 35°22' E 139°53'0 0.0
2016-Jan-29 10:34N 35°22' E 139°53'0 0.0
2016-Jan-29 09:33N 35°22' E 139°53'0 0.0
2016-Jan-29 08:32N 35°22' E 139°53'0 0.0
2016-Jan-29 07:32N 35°22' E 139°53'0 0.0
2016-Jan-29 06:32N 35°22' E 139°53'0 0.0
2016-Jan-29 05:32N 35°22' E 139°53'0 0.0
2016-Jan-29 04:32N 35°22' E 139°53'0 0.0
2016-Jan-29 03:32N 35°22' E 139°53'0 0.0
2016-Jan-29 02:32N 35°22' E 139°53'0 0.0
2016-Jan-29 01:32N 35°22' E 139°53'0 0.0
2016-Jan-29 00:32N 35°22' E 139°53'0 0.0
2016-Jan-28 23:32N 35°22' E 139°53'0 0.0
2016-Jan-28 22:32N 35°22' E 139°53'0 0.0
2016-Jan-28 21:29N 35°22' E 139°53'2 2.4
2016-Jan-28 20:33N 35°24' E 139°51'0 0.1
2016-Jan-28 19:31N 35°24' E 139°51'0 0.0
2016-Jan-28 18:31N 35°24' E 139°51'0 0.0
2016-Jan-28 17:31N 35°24' E 139°51'0 0.0
2016-Jan-28 16:31N 35°24' E 139°51'0 0.0
2016-Jan-28 15:31N 35°24' E 139°51'0 0.0
2016-Jan-28 14:28N 35°24' E 139°51'0 0.0
2016-Jan-28 13:31N 35°24' E 139°51'0 0.0
2016-Jan-28 12:31N 35°24' E 139°51'0 0.0
2016-Jan-28 11:31N 35°24' E 139°51'0 0.0
2016-Jan-28 10:31N 35°24' E 139°51'0 0.1
2016-Jan-28 09:25N 35°24' E 139°51'0 0.0
2016-Jan-28 08:31N 35°24' E 139°51'0 0.0
2016-Jan-28 07:31N 35°24' E 139°51'0 0.0
2016-Jan-28 06:25N 35°24' E 139°51'0 0.0
2016-Jan-28 05:33N 35°24' E 139°51'8 7.5
2016-Jan-28 04:33N 35°18' E 139°45'1110.4
2016-Jan-28 03:32N 35°07' E 139°45'  

Dump ship's entire track history